Time;durP1;ratioP1;P1;durP2;ratioP2;P2;SDS_P1;SDS_P2;PMS_P1;PMS_P2;Temp;Humidity;BMP_temperature;BMP_pressure;BME280_temperature;BME280_humidity;BME280_pressure;Samples;Min_cycle;Max_cycle;Signal;HPM_P1;HPM_P2
2022/03/04 00:01:59;;;;;;;84.97;15.13;;;;;;;;;;5091789;28;20258;-69
2022/03/04 00:04:27;;;;;;;78.35;14.10;;;;;;;;;;5091627;28;20299;-72
2022/03/04 00:06:54;;;;;;;78.03;15.95;;;;;;;;;;5091105;28;20235;-69
2022/03/04 00:09:22;;;;;;;80.18;16.05;;;;;;;;;;5091726;28;20212;-69
2022/03/04 00:11:49;;;;;;;82.13;15.23;;;;;;;;;;5091537;28;20239;-69
2022/03/04 00:14:19;;;;;;;90.63;15.20;;;;;;;;;;5092057;28;20287;-70
2022/03/04 00:16:47;;;;;;;78.57;16.10;;;;;;;;;;5091875;28;20224;-72
2022/03/04 00:19:14;;;;;;;83.05;16.02;;;;;;;;;;5091506;28;20212;-69
2022/03/04 00:21:42;;;;;;;80.57;15.27;;;;;;;;;;5091608;28;20215;-70
2022/03/04 00:24:09;;;;;;;80.72;15.85;;;;;;;;;;5091699;28;20695;-72
2022/03/04 00:26:36;;;;;;;76.28;13.57;;;;;;;;;;5083728;28;20684;-69
2022/03/04 00:29:04;;;;;;;80.70;14.63;;;;;;;;;;5070981;28;20287;-70
2022/03/04 00:31:33;;;;;;;78.38;14.63;;;;;;;;;;5071303;28;20215;-69
2022/03/04 00:34:00;;;;;;;74.82;13.55;;;;;;;;;;5071186;28;20205;-69
2022/03/04 00:36:27;;;;;;;74.45;13.65;;;;;;;;;;5071257;28;20229;-71
2022/03/04 00:38:55;;;;;;;77.32;13.15;;;;;;;;;;5070870;28;20204;-69
2022/03/04 00:41:24;;;;;;;73.97;13.40;;;;;;;;;;5071430;28;20209;-69
2022/03/04 00:43:52;;;;;;;80.22;14.18;;;;;;;;;;5071095;28;20629;-69
2022/03/04 00:46:20;;;;;;;84.00;14.60;;;;;;;;;;5070493;28;20232;-70
2022/03/04 00:48:48;;;;;;;74.70;14.13;;;;;;;;;;5070603;28;20296;-70
2022/03/04 00:51:16;;;;;;;73.13;13.50;;;;;;;;;;5071075;28;20299;-72
2022/03/04 00:53:44;;;;;;;84.28;15.90;;;;;;;;;;5071092;28;20732;-69
2022/03/04 00:56:11;;;;;;;82.55;15.45;;;;;;;;;;5071583;28;20225;-69
2022/03/04 00:58:38;;;;;;;82.38;14.88;;;;;;;;;;5079398;28;20235;-69
2022/03/04 01:01:06;;;;;;;78.25;14.95;;;;;;;;;;5091388;28;20303;-72
2022/03/04 01:03:34;;;;;;;71.10;11.55;;;;;;;;;;5090982;28;20295;-69
2022/03/04 01:06:03;;;;;;;79.40;14.35;;;;;;;;;;5090898;28;20232;-69
2022/03/04 01:08:30;;;;;;;74.07;12.60;;;;;;;;;;5092830;28;20207;-73
2022/03/04 01:10:57;;;;;;;83.68;14.52;;;;;;;;;;5095345;28;20205;-69
2022/03/04 01:13:25;;;;;;;84.25;17.05;;;;;;;;;;5095026;28;20243;-70
2022/03/04 01:15:54;;;;;;;79.95;15.90;;;;;;;;;;5095010;28;20469;-67
2022/03/04 01:18:22;;;;;;;83.32;17.50;;;;;;;;;;5094417;28;20746;-69
2022/03/04 01:20:49;;;;;;;74.75;13.80;;;;;;;;;;5095197;28;20212;-69
2022/03/04 01:23:17;;;;;;;71.93;12.30;;;;;;;;;;5094596;28;20242;-69
2022/03/04 01:25:44;;;;;;;75.32;13.40;;;;;;;;;;5094206;28;20247;-73
2022/03/04 01:28:12;;;;;;;78.22;14.10;;;;;;;;;;5094275;28;20208;-70
2022/03/04 01:30:39;;;;;;;78.63;14.50;;;;;;;;;;5093534;28;20204;-72
2022/03/04 01:33:06;;;;;;;81.20;16.63;;;;;;;;;;5094530;28;20204;-69
2022/03/04 01:35:33;;;;;;;76.20;13.23;;;;;;;;;;5094464;28;20260;-70
2022/03/04 01:38:02;;;;;;;75.63;14.10;;;;;;;;;;5094628;28;20303;-72
2022/03/04 01:40:30;;;;;;;74.05;12.88;;;;;;;;;;5094495;28;20204;-72
2022/03/04 01:42:57;;;;;;;84.90;15.02;;;;;;;;;;5094150;28;20295;-69
2022/03/04 01:45:24;;;;;;;77.97;13.50;;;;;;;;;;5093898;28;20231;-69
2022/03/04 01:47:52;;;;;;;75.63;15.20;;;;;;;;;;5093333;28;20235;-69
2022/03/04 01:50:19;;;;;;;77.10;14.02;;;;;;;;;;5094316;28;20588;-69
2022/03/04 01:52:46;;;;;;;73.75;13.10;;;;;;;;;;5094543;28;20290;-70
2022/03/04 01:55:13;;;;;;;78.97;13.60;;;;;;;;;;5094061;28;20716;-70
2022/03/04 01:57:42;;;;;;;71.60;12.57;;;;;;;;;;5094064;28;20378;-68
2022/03/04 02:00:11;;;;;;;73.75;13.07;;;;;;;;;;5093905;28;20210;-70
2022/03/04 02:02:38;;;;;;;81.45;15.98;;;;;;;;;;5092901;28;20327;-68
2022/03/04 02:05:06;;;;;;;74.97;15.70;;;;;;;;;;5094088;28;20692;-68
2022/03/04 02:07:33;;;;;;;74.93;12.93;;;;;;;;;;5093257;28;20238;-69
2022/03/04 02:10:00;;;;;;;75.00;13.65;;;;;;;;;;5093820;28;20207;-69
2022/03/04 02:12:27;;;;;;;76.18;13.88;;;;;;;;;;5093896;28;20204;-70
2022/03/04 02:14:56;;;;;;;81.93;16.30;;;;;;;;;;5093570;28;20739;-70
2022/03/04 02:17:23;;;;;;;74.32;14.38;;;;;;;;;;5093705;28;20200;-69
2022/03/04 02:19:52;;;;;;;73.70;12.98;;;;;;;;;;5092840;28;20232;-71
2022/03/04 02:22:21;;;;;;;78.13;13.90;;;;;;;;;;5093560;28;20207;-69
2022/03/04 02:24:48;;;;;;;73.75;11.75;;;;;;;;;;5093466;28;20231;-69
2022/03/04 02:27:16;;;;;;;71.35;12.50;;;;;;;;;;5092532;28;20323;-69
2022/03/04 02:29:43;;;;;;;72.47;12.40;;;;;;;;;;5093340;28;20219;-69
2022/03/04 02:32:10;;;;;;;71.35;11.93;;;;;;;;;;5091746;28;20736;-69
2022/03/04 02:34:38;;;;;;;71.97;12.38;;;;;;;;;;5093344;28;20719;-69
2022/03/04 02:37:05;;;;;;;71.18;11.25;;;;;;;;;;5093389;28;20203;-73
2022/03/04 02:39:34;;;;;;;73.63;13.27;;;;;;;;;;5093093;28;20204;-73
2022/03/04 02:42:01;;;;;;;76.32;12.30;;;;;;;;;;5093676;28;20234;-70
2022/03/04 02:44:28;;;;;;;76.20;12.70;;;;;;;;;;5092702;28;20210;-69
2022/03/04 02:46:55;;;;;;;71.18;12.27;;;;;;;;;;5090826;28;20322;-69
2022/03/04 02:49:22;;;;;;;75.53;14.50;;;;;;;;;;5092668;28;20768;-68
2022/03/04 02:51:50;;;;;;;79.60;14.45;;;;;;;;;;5093602;28;20275;-69
2022/03/04 02:54:17;;;;;;;90.70;18.40;;;;;;;;;;5093158;28;20647;-71
2022/03/04 02:56:46;;;;;;;78.25;13.63;;;;;;;;;;5093193;28;20221;-69
2022/03/04 02:59:13;;;;;;;77.32;12.73;;;;;;;;;;5092961;28;20392;-69
2022/03/04 03:01:40;;;;;;;73.18;12.93;;;;;;;;;;5093209;28;20303;-69
2022/03/04 03:04:08;;;;;;;78.00;13.80;;;;;;;;;;5090452;28;20204;-69
2022/03/04 03:06:35;;;;;;;80.97;13.88;;;;;;;;;;5092310;28;20226;-71
2022/03/04 03:09:02;;;;;;;80.25;14.98;;;;;;;;;;5092057;28;20306;-69
2022/03/04 03:11:29;;;;;;;74.13;13.57;;;;;;;;;;5092964;28;20492;-69
2022/03/04 03:13:58;;;;;;;74.30;13.40;;;;;;;;;;5092586;28;20215;-69
2022/03/04 03:16:25;;;;;;;73.72;12.27;;;;;;;;;;5092701;28;20220;-69
2022/03/04 03:18:52;;;;;;;80.43;17.13;;;;;;;;;;5092409;28;20664;-68
2022/03/04 03:21:19;;;;;;;78.72;14.45;;;;;;;;;;5092672;28;20207;-69
2022/03/04 03:23:46;;;;;;;73.70;13.23;;;;;;;;;;5092764;28;20295;-69
2022/03/04 03:26:14;;;;;;;79.82;13.57;;;;;;;;;;5092030;28;20610;-71
2022/03/04 03:28:41;;;;;;;73.07;13.75;;;;;;;;;;5091305;28;20212;-69
2022/03/04 03:31:09;;;;;;;69.95;11.95;;;;;;;;;;5092474;28;20213;-71
2022/03/04 03:33:37;;;;;;;80.55;13.70;;;;;;;;;;5092679;28;20210;-69
2022/03/04 03:36:04;;;;;;;72.68;13.10;;;;;;;;;;5090910;28;20235;-70
2022/03/04 03:38:32;;;;;;;73.90;12.48;;;;;;;;;;5092202;28;20204;-69
2022/03/04 03:40:59;;;;;;;71.07;12.25;;;;;;;;;;5092250;28;20295;-69
2022/03/04 03:43:26;;;;;;;73.18;12.38;;;;;;;;;;5092069;28;20210;-69
2022/03/04 03:45:53;;;;;;;73.60;12.65;;;;;;;;;;5091863;28;20224;-70
2022/03/04 03:48:21;;;;;;;74.05;13.15;;;;;;;;;;5091205;28;20256;-72
2022/03/04 03:50:49;;;;;;;71.07;11.65;;;;;;;;;;5091710;28;20209;-69
2022/03/04 03:53:16;;;;;;;72.45;12.38;;;;;;;;;;5092068;28;20214;-69
2022/03/04 03:55:43;;;;;;;78.38;12.27;;;;;;;;;;5091886;28;20228;-70
2022/03/04 03:58:10;;;;;;;73.88;13.07;;;;;;;;;;5091606;28;20211;-69
2022/03/04 04:00:37;;;;;;;72.50;12.85;;;;;;;;;;5092116;28;20205;-70
2022/03/04 04:03:04;;;;;;;79.75;15.35;;;;;;;;;;5091944;28;20668;-69
2022/03/04 04:05:33;;;;;;;79.63;14.00;;;;;;;;;;5091780;28;20236;-69
2022/03/04 04:08:00;;;;;;;74.78;14.20;;;;;;;;;;5088937;28;20230;-69
2022/03/04 04:10:27;;;;;;;80.03;14.10;;;;;;;;;;5091709;28;20200;-70
2022/03/04 04:12:54;;;;;;;75.22;13.68;;;;;;;;;;5091793;28;20209;-69
2022/03/04 04:15:21;;;;;;;78.60;14.00;;;;;;;;;;5092110;28;20270;-69
2022/03/04 04:17:49;;;;;;;76.72;13.60;;;;;;;;;;5091871;28;20286;-69
2022/03/04 04:20:16;;;;;;;74.30;13.75;;;;;;;;;;5091686;28;20316;-69
2022/03/04 04:22:44;;;;;;;72.32;12.85;;;;;;;;;;5091960;28;20207;-70
2022/03/04 04:25:11;;;;;;;80.72;15.50;;;;;;;;;;5091394;28;20232;-70
2022/03/04 04:27:39;;;;;;;73.05;13.60;;;;;;;;;;5091315;28;20227;-69
2022/03/04 04:30:06;;;;;;;78.45;14.25;;;;;;;;;;5090885;28;20212;-68
2022/03/04 04:32:34;;;;;;;78.35;15.73;;;;;;;;;;5091822;28;20838;-69
2022/03/04 04:35:01;;;;;;;76.10;14.57;;;;;;;;;;5091716;28;20733;-68
2022/03/04 04:37:28;;;;;;;77.55;14.70;;;;;;;;;;5091330;28;20207;-70
2022/03/04 04:39:56;;;;;;;75.72;14.70;;;;;;;;;;5089600;28;20774;-69
2022/03/04 04:42:24;;;;;;;80.05;14.45;;;;;;;;;;5091890;28;20291;-72
2022/03/04 04:44:52;;;;;;;76.15;15.10;;;;;;;;;;5095594;28;20224;-68
2022/03/04 04:47:19;;;;;;;80.65;15.23;;;;;;;;;;5094943;28;20226;-69
2022/03/04 04:49:46;;;;;;;79.45;14.57;;;;;;;;;;5095009;28;20509;-71
2022/03/04 04:52:14;;;;;;;76.00;15.18;;;;;;;;;;5094973;28;20247;-68
2022/03/04 04:54:42;;;;;;;79.78;15.55;;;;;;;;;;5095797;28;20200;-69
2022/03/04 04:57:11;;;;;;;83.00;16.13;;;;;;;;;;5095394;28;20748;-69
2022/03/04 04:59:38;;;;;;;79.03;14.00;;;;;;;;;;5096120;28;20204;-69
2022/03/04 05:02:05;;;;;;;73.95;13.80;;;;;;;;;;5095372;28;20668;-69
2022/03/04 05:04:32;;;;;;;74.35;11.85;;;;;;;;;;5095352;28;20295;-71
2022/03/04 05:07:00;;;;;;;74.90;14.52;;;;;;;;;;5094704;28;20315;-69
2022/03/04 05:09:27;;;;;;;80.70;15.23;;;;;;;;;;5094824;28;20226;-69
2022/03/04 05:11:54;;;;;;;75.65;14.45;;;;;;;;;;5094531;28;20214;-69
2022/03/04 05:14:23;;;;;;;75.68;13.23;;;;;;;;;;5095290;28;20204;-69
2022/03/04 05:16:50;;;;;;;76.60;14.65;;;;;;;;;;5093098;28;20220;-70
2022/03/04 05:19:17;;;;;;;76.43;14.48;;;;;;;;;;5094538;28;20743;-69
2022/03/04 05:21:44;;;;;;;74.18;13.50;;;;;;;;;;5095307;28;20215;-69
2022/03/04 05:24:12;;;;;;;77.53;14.48;;;;;;;;;;5094926;28;20204;-70
2022/03/04 05:26:40;;;;;;;72.22;11.32;;;;;;;;;;5094345;28;20228;-68
2022/03/04 05:29:13;;;;;;;72.63;13.50;;;;;;;;;;5093941;28;20214;-70
2022/03/04 05:31:43;;;;;;;72.85;11.57;;;;;;;;;;5094309;28;20200;-69
2022/03/04 05:34:12;;;;;;;108.10;30.10;;;;;;;;;;5095001;28;20579;-69
2022/03/04 05:36:40;;;;;;;87.55;18.20;;;;;;;;;;5094688;28;20274;-70
2022/03/04 05:39:07;;;;;;;83.93;16.98;;;;;;;;;;5094499;28;20216;-69
2022/03/04 05:41:35;;;;;;;81.05;14.77;;;;;;;;;;5094444;28;20208;-68
2022/03/04 05:44:03;;;;;;;78.43;13.32;;;;;;;;;;5094577;28;20576;-69
2022/03/04 05:46:31;;;;;;;78.38;15.73;;;;;;;;;;5093981;28;20232;-69
2022/03/04 05:48:59;;;;;;;77.18;12.80;;;;;;;;;;5091838;28;20311;-70
2022/03/04 05:51:27;;;;;;;82.30;16.30;;;;;;;;;;5093757;28;20222;-69
2022/03/04 05:53:54;;;;;;;80.65;16.38;;;;;;;;;;5094412;28;20208;-70
2022/03/04 05:56:21;;;;;;;76.57;14.75;;;;;;;;;;5094469;28;20263;-69
2022/03/04 05:58:49;;;;;;;79.63;16.67;;;;;;;;;;5093788;28;20683;-70
2022/03/04 06:01:16;;;;;;;79.93;13.88;;;;;;;;;;5094761;28;20204;-72
2022/03/04 06:03:43;;;;;;;79.38;14.23;;;;;;;;;;5094236;28;20600;-69
2022/03/04 06:06:13;;;;;;;87.45;16.48;;;;;;;;;;5094197;28;20228;-70
2022/03/04 06:08:40;;;;;;;95.00;22.58;;;;;;;;;;5093551;28;20325;-69
2022/03/04 06:11:08;;;;;;;97.40;22.98;;;;;;;;;;5092784;28;20299;-69
2022/03/04 06:13:35;;;;;;;100.53;27.35;;;;;;;;;;5093652;28;20318;-69
2022/03/04 06:16:02;;;;;;;98.80;26.73;;;;;;;;;;5094067;28;20224;-70
2022/03/04 06:18:29;;;;;;;99.57;22.98;;;;;;;;;;5093014;28;20208;-74
2022/03/04 06:20:57;;;;;;;89.75;17.48;;;;;;;;;;5073002;28;20300;-69
2022/03/04 06:23:25;;;;;;;90.57;20.52;;;;;;;;;;5073314;28;20693;-68
2022/03/04 06:25:55;;;;;;;84.38;18.83;;;;;;;;;;5073300;28;20221;-72
2022/03/04 06:28:22;;;;;;;87.20;18.80;;;;;;;;;;5072947;28;20225;-69
2022/03/04 06:30:49;;;;;;;83.93;18.63;;;;;;;;;;5072961;28;20291;-69
2022/03/04 06:33:32;;;;;;;90.60;18.27;;;;;;;;;;5073036;28;20204;-72
2022/03/04 06:36:00;;;;;;;90.82;21.38;;;;;;;;;;5073281;28;20227;-69
2022/03/04 06:38:29;;;;;;;92.93;19.27;;;;;;;;;;5072584;28;20303;-69
2022/03/04 06:40:57;;;;;;;87.43;19.88;;;;;;;;;;5073058;28;20696;-69
2022/03/04 06:43:25;;;;;;;82.05;17.88;;;;;;;;;;5073066;28;20213;-69
2022/03/04 06:45:52;;;;;;;92.18;18.83;;;;;;;;;;5073163;28;20228;-69
2022/03/04 06:48:21;;;;;;;83.63;17.25;;;;;;;;;;5072269;28;20220;-72
2022/03/04 06:50:48;;;;;;;83.35;17.60;;;;;;;;;;5071746;28;20232;-70
2022/03/04 06:53:15;;;;;;;82.15;17.70;;;;;;;;;;5073137;28;20581;-70
2022/03/04 06:55:44;;;;;;;85.30;17.25;;;;;;;;;;5073034;28;20235;-69
2022/03/04 06:58:12;;;;;;;86.18;18.75;;;;;;;;;;5072970;28;20204;-70
2022/03/04 07:00:41;;;;;;;84.72;16.45;;;;;;;;;;5073225;28;20209;-69
2022/03/04 07:03:08;;;;;;;82.53;15.85;;;;;;;;;;5072798;28;20200;-70
2022/03/04 07:05:35;;;;;;;76.45;15.50;;;;;;;;;;5072126;28;20534;-68
2022/03/04 07:08:03;;;;;;;80.50;16.30;;;;;;;;;;5072616;28;20225;-69
2022/03/04 07:10:30;;;;;;;76.72;14.50;;;;;;;;;;5072713;28;20211;-69
2022/03/04 07:12:59;;;;;;;78.28;15.52;;;;;;;;;;5072915;28;20299;-69
2022/03/04 07:15:26;;;;;;;79.45;15.48;;;;;;;;;;5072844;28;20263;-70
2022/03/04 07:17:53;;;;;;;84.07;15.15;;;;;;;;;;5072406;28;20201;-69
2022/03/04 07:20:20;;;;;;;79.60;16.35;;;;;;;;;;5073072;28;20303;-68
2022/03/04 07:22:47;;;;;;;78.60;16.25;;;;;;;;;;5072971;28;20262;-67
2022/03/04 07:25:16;;;;;;;79.20;14.90;;;;;;;;;;5072647;28;20716;-69
2022/03/04 07:27:44;;;;;;;77.70;14.85;;;;;;;;;;5072759;28;20221;-68
2022/03/04 07:30:14;;;;;;;74.65;15.07;;;;;;;;;;5071637;28;20212;-68
2022/03/04 07:32:41;;;;;;;85.85;17.05;;;;;;;;;;5071683;28;20528;-68
2022/03/04 07:35:08;;;;;;;76.13;13.40;;;;;;;;;;5071485;28;20316;-71
2022/03/04 07:37:36;;;;;;;79.00;15.88;;;;;;;;;;5071432;28;20216;-68
2022/03/04 07:40:03;;;;;;;78.65;14.93;;;;;;;;;;5071595;28;20205;-69
2022/03/04 07:42:30;;;;;;;84.05;15.35;;;;;;;;;;5071895;28;20201;-68
2022/03/04 07:44:57;;;;;;;74.72;14.55;;;;;;;;;;5071320;28;20247;-68
2022/03/04 07:47:26;;;;;;;83.63;18.20;;;;;;;;;;5071320;28;20362;-68
2022/03/04 07:49:53;;;;;;;76.93;15.77;;;;;;;;;;5071541;28;20300;-69
2022/03/04 07:52:20;;;;;;;75.40;15.57;;;;;;;;;;5071405;28;20291;-68
2022/03/04 07:54:47;;;;;;;78.60;15.38;;;;;;;;;;5071729;28;20588;-69
2022/03/04 07:57:15;;;;;;;76.80;14.30;;;;;;;;;;5071027;28;20383;-68
2022/03/04 07:59:42;;;;;;;82.28;16.77;;;;;;;;;;5071073;28;20228;-68
2022/03/04 08:02:09;;;;;;;80.15;15.10;;;;;;;;;;5071178;28;20703;-68
2022/03/04 08:04:37;;;;;;;82.05;15.25;;;;;;;;;;5071217;28;20215;-68
2022/03/04 08:07:05;;;;;;;79.82;15.55;;;;;;;;;;5071111;28;20201;-74
2022/03/04 08:09:32;;;;;;;80.55;16.17;;;;;;;;;;5070951;28;20315;-68
2022/03/04 08:11:59;;;;;;;79.82;16.58;;;;;;;;;;5070719;28;20209;-70
2022/03/04 08:14:26;;;;;;;82.55;16.65;;;;;;;;;;5070818;28;20205;-69
2022/03/04 08:16:53;;;;;;;78.57;15.63;;;;;;;;;;5070229;28;20208;-68
2022/03/04 08:19:20;;;;;;;84.65;16.70;;;;;;;;;;5070417;28;20296;-68
2022/03/04 08:21:49;;;;;;;76.65;15.57;;;;;;;;;;5070900;28;20300;-71
2022/03/04 08:24:16;;;;;;;82.57;14.88;;;;;;;;;;5070767;28;20215;-69
2022/03/04 08:26:43;;;;;;;81.47;15.70;;;;;;;;;;5071069;28;20320;-68
2022/03/04 08:29:10;;;;;;;83.72;17.13;;;;;;;;;;5031255;28;1133137;-69
2022/03/04 08:31:38;;;;;;;81.38;16.58;;;;;;;;;;5071750;28;20208;-68
2022/03/04 08:34:05;;;;;;;85.97;16.85;;;;;;;;;;5071669;28;20275;-69
2022/03/04 08:36:33;;;;;;;79.88;16.70;;;;;;;;;;5072061;28;20423;-69
2022/03/04 08:39:03;;;;;;;84.32;16.85;;;;;;;;;;5071545;28;20205;-68
2022/03/04 08:41:30;;;;;;;83.55;15.35;;;;;;;;;;5071919;28;20300;-68
2022/03/04 08:43:57;;;;;;;84.88;18.20;;;;;;;;;;5071550;28;20243;-68
2022/03/04 08:46:24;;;;;;;79.03;15.95;;;;;;;;;;5071546;28;20312;-69
2022/03/04 08:48:52;;;;;;;79.57;17.02;;;;;;;;;;5071300;28;20228;-69
2022/03/04 08:51:24;;;;;;;84.95;17.55;;;;;;;;;;5071364;28;20201;-69
2022/03/04 08:53:51;;;;;;;80.93;16.70;;;;;;;;;;5071229;28;20296;-69
2022/03/04 08:56:20;;;;;;;85.68;17.63;;;;;;;;;;5071481;28;20728;-70
2022/03/04 08:58:47;;;;;;;81.15;16.73;;;;;;;;;;5071156;28;20204;-69
2022/03/04 09:01:14;;;;;;;85.25;16.67;;;;;;;;;;5071432;28;20778;-71
2022/03/04 09:03:42;;;;;;;85.53;17.17;;;;;;;;;;5071228;28;20211;-69
2022/03/04 09:06:09;;;;;;;83.20;16.92;;;;;;;;;;5071070;28;20282;-70
2022/03/04 09:08:37;;;;;;;85.05;18.27;;;;;;;;;;5071317;28;20319;-69
2022/03/04 09:11:04;;;;;;;81.15;15.90;;;;;;;;;;5071412;28;20304;-69
2022/03/04 09:13:33;;;;;;;77.95;15.85;;;;;;;;;;5071314;28;20292;-71
2022/03/04 09:16:00;;;;;;;82.50;16.15;;;;;;;;;;5071446;28;20229;-69
2022/03/04 09:18:28;;;;;;;86.80;17.55;;;;;;;;;;5070835;28;20201;-70
2022/03/04 09:20:55;;;;;;;83.80;18.08;;;;;;;;;;5070982;28;20295;-69
2022/03/04 09:23:22;;;;;;;81.60;17.38;;;;;;;;;;5071333;28;20300;-69
2022/03/04 09:25:51;;;;;;;88.35;18.27;;;;;;;;;;5071208;28;20247;-69
2022/03/04 09:28:18;;;;;;;89.93;18.02;;;;;;;;;;5070852;28;20278;-70
2022/03/04 09:30:46;;;;;;;79.35;15.82;;;;;;;;;;5074761;28;20205;-69
2022/03/04 09:33:13;;;;;;;84.60;17.20;;;;;;;;;;5074561;28;20254;-71
2022/03/04 09:35:40;;;;;;;82.05;16.25;;;;;;;;;;5074634;28;20661;-69
2022/03/04 09:38:08;;;;;;;84.38;18.50;;;;;;;;;;5074554;28;20708;-70
2022/03/04 09:40:35;;;;;;;82.38;17.33;;;;;;;;;;5074674;28;20209;-69
2022/03/04 09:43:02;;;;;;;84.95;18.13;;;;;;;;;;5074373;28;20215;-69
2022/03/04 09:45:30;;;;;;;84.75;18.95;;;;;;;;;;5074424;28;20751;-69
2022/03/04 09:48:00;;;;;;;83.88;16.73;;;;;;;;;;5073868;28;20212;-69
2022/03/04 09:50:28;;;;;;;79.43;16.92;;;;;;;;;;5074569;28;20246;-69
2022/03/04 09:52:56;;;;;;;89.95;18.58;;;;;;;;;;5074382;28;20292;-69
2022/03/04 09:55:23;;;;;;;80.75;16.85;;;;;;;;;;5074268;28;20378;-69
2022/03/04 09:57:50;;;;;;;85.95;18.33;;;;;;;;;;5073880;28;20296;-70
2022/03/04 10:00:18;;;;;;;84.85;18.20;;;;;;;;;;5074134;28;20206;-70
2022/03/04 10:02:45;;;;;;;79.27;14.67;;;;;;;;;;5074589;28;20223;-70
2022/03/04 10:05:13;;;;;;;81.97;16.93;;;;;;;;;;5074158;28;20560;-70
2022/03/04 10:07:41;;;;;;;78.97;14.83;;;;;;;;;;5073907;28;20484;-70
2022/03/04 10:10:12;;;;;;;76.70;15.00;;;;;;;;;;5073982;28;21006;-70
2022/03/04 10:12:49;;;;;;;80.27;15.40;;;;;;;;;;5074294;28;20439;-70
2022/03/04 10:15:17;;;;;;;75.87;16.00;;;;;;;;;;5074044;28;21024;-67
2022/03/04 10:17:56;;;;;;;76.27;15.00;;;;;;;;;;5073761;28;20443;-68
2022/03/04 10:20:32;;;;;;;78.70;16.53;;;;;;;;;;5073988;28;20525;-68
2022/03/04 10:23:10;;;;;;;83.00;16.10;;;;;;;;;;5073708;28;20447;-68
2022/03/04 10:25:37;;;;;;;78.47;15.30;;;;;;;;;;5073937;28;20551;-68
2022/03/04 10:28:09;;;;;;;77.77;16.70;;;;;;;;;;5073680;28;20478;-68
2022/03/04 10:30:36;;;;;;;76.40;15.50;;;;;;;;;;5074117;28;20441;-68
2022/03/04 10:33:07;;;;;;;75.33;15.30;;;;;;;;;;5073689;28;20547;-69
2022/03/04 10:35:36;;;;;;;75.23;15.13;;;;;;;;;;5073698;28;20517;-68
2022/03/04 10:38:04;;;;;;;82.60;16.97;;;;;;;;;;5073290;28;20831;-69
2022/03/04 10:40:32;;;;;;;77.83;16.50;;;;;;;;;;5072684;28;20471;-69
2022/03/04 10:43:01;;;;;;;75.90;15.83;;;;;;;;;;5073124;28;20443;-70
2022/03/04 10:45:29;;;;;;;78.90;16.60;;;;;;;;;;5073168;28;21097;-69
2022/03/04 10:47:58;;;;;;;76.80;14.60;;;;;;;;;;5073083;28;20471;-69
2022/03/04 10:50:29;;;;;;;73.30;14.97;;;;;;;;;;5072990;28;20498;-69
2022/03/04 10:52:59;;;;;;;76.43;14.73;;;;;;;;;;5073478;28;20440;-69
2022/03/04 10:55:29;;;;;;;74.70;15.60;;;;;;;;;;5073006;28;21008;-68
2022/03/04 10:57:56;;;;;;;73.80;15.00;;;;;;;;;;5072854;28;20534;-69
2022/03/04 11:00:27;;;;;;;75.23;16.13;;;;;;;;;;5073102;28;20447;-71
2022/03/04 11:02:55;;;;;;;76.27;14.10;;;;;;;;;;5072803;28;20499;-69
2022/03/04 11:05:22;;;;;;;78.07;16.27;;;;;;;;;;5073028;28;20462;-70
2022/03/04 11:07:50;;;;;;;72.30;14.17;;;;;;;;;;5072774;28;20449;-69
2022/03/04 11:10:19;;;;;;;75.60;14.20;;;;;;;;;;5072780;28;20521;-69
2022/03/04 11:12:49;;;;;;;72.20;13.97;;;;;;;;;;5072941;28;20474;-69
2022/03/04 11:15:17;;;;;;;77.23;14.63;;;;;;;;;;5072769;28;20838;-70
2022/03/04 11:17:45;;;;;;;73.93;13.13;;;;;;;;;;5072246;28;20450;-70
2022/03/04 11:20:12;;;;;;;74.30;15.10;;;;;;;;;;5072556;28;20450;-72
2022/03/04 11:22:40;;;;;;;73.20;14.33;;;;;;;;;;5072561;28;20490;-70
2022/03/04 11:25:10;;;;;;;77.00;14.70;;;;;;;;;;5072431;28;20471;-70
2022/03/04 11:27:42;;;;;;;74.30;14.87;;;;;;;;;;5072219;28;20462;-69
2022/03/04 11:30:10;;;;;;;74.40;15.43;;;;;;;;;;5072373;28;20867;-69
2022/03/04 11:32:38;;;;;;;74.17;14.47;;;;;;;;;;5072297;28;20458;-70
2022/03/04 11:35:05;;;;;;;71.93;12.80;;;;;;;;;;5072418;28;20554;-70
2022/03/04 11:37:33;;;;;;;73.53;14.63;;;;;;;;;;5072192;28;20505;-71
2022/03/04 11:40:04;;;;;;;74.67;14.07;;;;;;;;;;5072437;28;20461;-70
2022/03/04 11:42:38;;;;;;;76.10;15.67;;;;;;;;;;5072061;28;20519;-70
2022/03/04 11:45:08;;;;;;;76.20;14.80;;;;;;;;;;5072453;28;20931;-70
2022/03/04 11:47:39;;;;;;;78.23;15.17;;;;;;;;;;5072221;28;20447;-69
2022/03/04 11:50:26;;;;;;;76.80;15.93;;;;;;;;;;5072062;28;21089;-68
2022/03/04 11:52:53;;;;;;;72.30;14.13;;;;;;;;;;5071722;28;20486;-68
2022/03/04 11:55:26;;;;;;;76.70;14.97;;;;;;;;;;5072298;28;20467;-68
2022/03/04 11:58:03;;;;;;;73.67;15.37;;;;;;;;;;5071911;28;20454;-70
2022/03/04 12:00:36;;;;;;;74.43;15.60;;;;;;;;;;5072078;28;20521;-68
2022/03/04 12:03:17;;;;;;;74.93;15.37;;;;;;;;;;5071955;28;20447;-70
2022/03/04 12:05:49;;;;;;;72.10;14.67;;;;;;;;;;5072084;28;20550;-70
2022/03/04 12:08:16;;;;;;;73.40;14.53;;;;;;;;;;5072022;28;20530;-70
2022/03/04 12:10:45;;;;;;;70.00;13.77;;;;;;;;;;5071904;28;20479;-70
2022/03/04 12:13:14;;;;;;;72.70;14.77;;;;;;;;;;5086581;28;20439;-70
2022/03/04 12:15:44;;;;;;;69.60;13.53;;;;;;;;;;5092137;28;20467;-69
2022/03/04 12:18:16;;;;;;;73.50;14.57;;;;;;;;;;5091645;28;20999;-70
2022/03/04 12:20:59;;;;;;;72.10;13.40;;;;;;;;;;5092201;28;20810;-69
2022/03/04 12:23:29;;;;;;;71.60;13.57;;;;;;;;;;5091937;28;20451;-70
2022/03/04 12:26:10;;;;;;;72.20;14.43;;;;;;;;;;5091984;28;20467;-71
2022/03/04 12:28:41;;;;;;;70.27;13.27;;;;;;;;;;5091835;28;20490;-70
2022/03/04 12:31:17;;;;;;;68.77;12.27;;;;;;;;;;5091976;28;20479;-71
2022/03/04 12:33:45;;;;;;;68.97;13.20;;;;;;;;;;5091897;28;20474;-71
2022/03/04 12:36:13;;;;;;;69.97;12.17;;;;;;;;;;5091713;28;20552;-71
2022/03/04 12:38:42;;;;;;;68.97;12.27;;;;;;;;;;5091387;28;20457;-71
2022/03/04 12:41:14;;;;;;;69.53;12.87;;;;;;;;;;5092064;28;20525;-71
2022/03/04 12:43:41;;;;;;;68.87;11.37;;;;;;;;;;5091888;28;20445;-70
2022/03/04 12:46:09;;;;;;;68.40;11.80;;;;;;;;;;5091633;28;20501;-70
2022/03/04 12:48:37;;;;;;;71.67;12.47;;;;;;;;;;5091610;28;20533;-70
2022/03/04 12:51:18;;;;;;;68.40;11.30;;;;;;;;;;5091528;28;20478;-70
2022/03/04 12:53:45;;;;;;;72.27;12.30;;;;;;;;;;5091837;28;20508;-70
2022/03/04 12:56:13;;;;;;;67.63;12.23;;;;;;;;;;5091687;28;20563;-70
2022/03/04 12:58:43;;;;;;;69.10;11.80;;;;;;;;;;5091353;28;20443;-69
2022/03/04 13:01:10;;;;;;;68.60;11.17;;;;;;;;;;5091723;28;20499;-70
2022/03/04 13:03:39;;;;;;;68.40;12.47;;;;;;;;;;5092154;28;20458;-70
2022/03/04 13:06:06;;;;;;;67.93;11.87;;;;;;;;;;5095635;28;20463;-70
2022/03/04 13:08:34;;;;;;;67.17;10.47;;;;;;;;;;5095160;28;20956;-70
2022/03/04 13:11:13;;;;;;;67.63;10.13;;;;;;;;;;5095605;28;20513;-70
2022/03/04 13:13:48;;;;;;;68.60;11.10;;;;;;;;;;5095360;28;20442;-70
2022/03/04 13:16:19;;;;;;;68.27;10.83;;;;;;;;;;5095019;28;20553;-69
2022/03/04 13:18:48;;;;;;;67.40;10.10;;;;;;;;;;5095159;28;20511;-70
2022/03/04 13:21:15;;;;;;;67.70;11.07;;;;;;;;;;5095299;28;20489;-70
2022/03/04 13:23:52;;;;;;;67.00;10.07;;;;;;;;;;5095148;28;20473;-69
2022/03/04 13:26:22;;;;;;;67.10;10.00;;;;;;;;;;5095213;28;20468;-71
2022/03/04 13:28:53;;;;;;;70.03;11.97;;;;;;;;;;5094606;28;20463;-69
2022/03/04 13:31:24;;;;;;;66.60;10.60;;;;;;;;;;5094944;28;20532;-70
2022/03/04 13:33:57;;;;;;;65.80;9.27;;;;;;;;;;5094984;28;20438;-70
2022/03/04 13:36:44;;;;;;;69.10;11.00;;;;;;;;;;5095171;28;20562;-70
2022/03/04 13:39:12;;;;;;;64.90;9.17;;;;;;;;;;5094369;28;20450;-70
2022/03/04 13:41:40;;;;;;;65.90;10.13;;;;;;;;;;5095177;28;20446;-69
2022/03/04 13:44:07;;;;;;;69.63;11.50;;;;;;;;;;5094974;28;20447;-70
2022/03/04 13:46:34;;;;;;;70.60;11.27;;;;;;;;;;5094581;28;20463;-70
2022/03/04 13:49:05;;;;;;;66.70;10.53;;;;;;;;;;5094616;28;20543;-70
2022/03/04 13:51:32;;;;;;;68.53;10.00;;;;;;;;;;5094693;28;20599;-70
2022/03/04 13:54:00;;;;;;;67.43;11.27;;;;;;;;;;5094508;28;20970;-70
2022/03/04 13:56:27;;;;;;;69.23;11.43;;;;;;;;;;5094581;28;20458;-71
2022/03/04 13:58:59;;;;;;;68.70;11.93;;;;;;;;;;5094497;28;20464;-70
2022/03/04 14:01:28;;;;;;;68.10;10.53;;;;;;;;;;5094535;28;20479;-71
2022/03/04 14:03:55;;;;;;;68.70;12.40;;;;;;;;;;5094473;28;20443;-71
2022/03/04 14:06:26;;;;;;;67.70;11.60;;;;;;;;;;5094083;28;20469;-70
2022/03/04 14:08:57;;;;;;;67.90;11.57;;;;;;;;;;5093944;28;20959;-70
2022/03/04 14:11:24;;;;;;;69.53;11.30;;;;;;;;;;5094320;28;20441;-70
2022/03/04 14:13:53;;;;;;;68.97;11.77;;;;;;;;;;5094159;28;20449;-71
2022/03/04 14:16:21;;;;;;;67.40;11.10;;;;;;;;;;5093916;28;20473;-70
2022/03/04 14:18:48;;;;;;;68.97;11.67;;;;;;;;;;5093631;28;20458;-68
2022/03/04 14:21:15;;;;;;;67.20;12.00;;;;;;;;;;5094228;28;20486;-70
2022/03/04 14:23:44;;;;;;;68.73;11.23;;;;;;;;;;5094026;28;20445;-70